Time;durP1;ratioP1;P1;durP2;ratioP2;P2;SDS_P1;SDS_P2;PMS_P1;PMS_P2;Temp;Humidity;BMP_temperature;BMP_pressure;BME280_temperature;BME280_humidity;BME280_pressure;Samples;Min_cycle;Max_cycle;Signal;HPM_P1;HPM_P2
2022/12/04 02:14:16;;;;;;;40.98;21.35;;;;;;;-6.12;100.00;101750.58;1799010;79;22107;-62
2022/12/04 02:16:56;;;;;;;31.70;17.85;;;;;;;-6.03;100.00;101751.70;1753624;81;21210;-64
2022/12/04 02:19:57;;;;;;;28.15;15.85;;;;;;;-5.72;100.00;101759.45;1749435;82;21047;-63
2022/12/04 02:23:02;;;;;;;20.92;11.00;;;;;;;-5.52;100.00;101758.73;1751270;81;21114;-62
2022/12/04 02:25:39;;;;;;;22.15;11.35;;;;;;;-5.38;100.00;101760.31;1751259;82;21101;-61
2022/12/04 02:28:21;;;;;;;23.60;11.45;;;;;;;-5.24;100.00;101768.03;1752675;82;21015;-62
2022/12/04 02:30:47;;;;;;;20.12;10.10;;;;;;;-5.14;100.00;101767.70;1752795;82;21035;-62
2022/12/04 02:33:27;;;;;;;18.02;9.53;;;;;;;-5.01;100.00;101761.77;1752944;82;21533;-63
2022/12/04 02:36:16;;;;;;;16.80;10.55;;;;;;;-4.94;100.00;101767.42;1752840;82;21714;-62
2022/12/04 02:39:00;;;;;;;19.40;9.95;;;;;;;-4.86;100.00;101771.17;1752716;82;21465;-62
2022/12/04 02:41:41;;;;;;;20.08;10.93;;;;;;;-4.79;100.00;101769.71;1751362;81;21093;-62
2022/12/04 02:44:19;;;;;;;18.00;9.70;;;;;;;-4.73;100.00;101767.88;1751613;82;21094;-61
2022/12/04 02:46:49;;;;;;;18.32;10.50;;;;;;;-4.70;100.00;101763.63;1751395;82;21090;-62
2022/12/04 02:49:19;;;;;;;19.37;10.30;;;;;;;-4.67;100.00;101765.19;1751546;82;21051;-62
2022/12/04 02:51:46;;;;;;;19.05;10.08;;;;;;;-4.65;100.00;101767.26;1751538;82;21564;-62
2022/12/04 02:54:33;;;;;;;22.30;11.93;;;;;;;-4.56;100.00;101759.84;1751594;82;21046;-62
2022/12/04 02:57:00;;;;;;;19.77;11.57;;;;;;;-4.53;100.00;101756.45;1751899;82;22317;-62
2022/12/04 02:59:37;;;;;;;21.02;12.10;;;;;;;-4.49;100.00;101760.19;1751570;82;21059;-62
2022/12/04 03:02:11;;;;;;;20.62;10.38;;;;;;;-4.46;100.00;101758.64;1751885;82;21094;-62
2022/12/04 03:04:38;;;;;;;18.05;10.95;;;;;;;-4.45;100.00;101755.83;1750143;82;21007;-62
2022/12/04 03:07:13;;;;;;;20.25;10.05;;;;;;;-4.45;100.00;101766.95;1751463;82;21957;-61
2022/12/04 03:09:49;;;;;;;17.27;9.98;;;;;;;-4.46;100.00;101759.45;1750905;82;21089;-62
2022/12/04 03:12:24;;;;;;;19.30;10.38;;;;;;;-4.46;100.00;101766.61;1752187;81;21611;-61
2022/12/04 03:15:01;;;;;;;19.02;12.05;;;;;;;-4.50;100.00;101765.16;1752500;82;21018;-62
2022/12/04 03:17:36;;;;;;;16.93;9.43;;;;;;;-4.51;100.00;101762.98;1753442;82;21079;-62
2022/12/04 03:20:08;;;;;;;20.43;10.58;;;;;;;-4.49;100.00;101764.17;1727219;82;20984;-62
2022/12/04 03:22:37;;;;;;;14.95;9.08;;;;;;;-4.48;100.00;101760.55;1753810;82;21435;-61
2022/12/04 03:25:04;;;;;;;17.27;10.15;;;;;;;-4.46;100.00;101766.61;1753083;82;21010;-62
2022/12/04 03:27:45;;;;;;;15.98;9.98;;;;;;;-4.49;100.00;101765.02;1753151;82;21057;-61
2022/12/04 03:30:17;;;;;;;15.32;9.25;;;;;;;-4.49;100.00;101763.70;1753127;82;20988;-61
2022/12/04 03:32:52;;;;;;;19.42;9.35;;;;;;;-4.43;100.00;101764.55;1753020;82;21026;-61
2022/12/04 03:35:39;;;;;;;16.45;10.08;;;;;;;-4.44;100.00;101758.86;1753207;82;21019;-62
2022/12/04 03:38:26;;;;;;;19.75;9.93;;;;;;;-4.44;100.00;101766.83;1751741;82;21042;-61
2022/12/04 03:41:05;;;;;;;19.45;9.40;;;;;;;-4.49;100.00;101760.19;1728900;82;21054;-61
2022/12/04 03:43:49;;;;;;;15.45;9.13;;;;;;;-4.54;100.00;101768.08;1751377;82;21511;-63
2022/12/04 03:46:46;;;;;;;18.07;9.55;;;;;;;-4.53;100.00;101760.92;1751540;82;21146;-62
2022/12/04 03:49:27;;;;;;;16.62;9.03;;;;;;;-4.50;100.00;101767.83;1751758;81;21118;-63
2022/12/04 03:52:03;;;;;;;16.17;9.93;;;;;;;-4.49;100.00;101770.81;1751604;82;21177;-63
2022/12/04 03:54:34;;;;;;;16.75;9.55;;;;;;;-4.44;100.00;101769.97;1751698;82;22192;-62
2022/12/04 03:57:05;;;;;;;13.60;8.43;;;;;;;-4.40;100.00;101774.07;1751504;82;21114;-62
2022/12/04 03:59:39;;;;;;;15.75;9.88;;;;;;;-4.39;100.00;101771.78;1751917;82;21022;-63
2022/12/04 04:02:09;;;;;;;18.25;9.95;;;;;;;-4.39;100.00;101765.13;1751563;82;21580;-62
2022/12/04 04:04:35;;;;;;;17.62;9.93;;;;;;;-4.40;100.00;101767.42;1751998;82;21042;-62
2022/12/04 04:07:05;;;;;;;;;;;;;;;-4.39;100.00;101766.47;1754178;82;21055;-63
2022/12/04 04:09:36;;;;;;;15.28;9.90;;;;;;;-4.41;100.00;101768.39;1751991;82;20134;-62
2022/12/04 04:12:07;;;;;;;14.00;9.43;;;;;;;-4.43;100.00;101771.19;1752673;81;21918;-62
2022/12/04 04:25:49;;;;;;;15.40;9.70;;;;;;;-4.58;100.00;101771.95;1746933;82;21074;-62
2022/12/04 05:58:41;;;;;;;24.00;12.15;;;;;;;-5.00;100.00;101795.81;1700909;82;21487;-71
2022/12/04 06:01:17;;;;;;;20.23;11.85;;;;;;;-5.00;100.00;101788.70;1682984;84;21063;-71
2022/12/04 06:03:43;;;;;;;19.73;11.38;;;;;;;-4.96;100.00;101802.09;1678183;85;21098;-71
2022/12/04 06:06:19;;;;;;;19.45;11.78;;;;;;;-4.95;100.00;101809.08;1667978;85;21102;-71
2022/12/04 06:08:46;;;;;;;20.12;12.05;;;;;;;-4.92;100.00;101804.03;1652098;86;21530;-71
2022/12/04 06:11:18;;;;;;;18.48;10.43;;;;;;;-4.88;100.00;101802.79;1652535;87;21554;-71
2022/12/04 06:13:45;;;;;;;20.12;11.00;;;;;;;-4.86;100.00;101808.36;1653687;86;21043;-70
2022/12/04 06:16:23;;;;;;;23.85;13.88;;;;;;;-4.84;100.00;101802.91;1652579;86;21613;-71
2022/12/04 06:18:50;;;;;;;23.07;12.55;;;;;;;-4.85;100.00;101808.70;1652407;86;21550;-71
2022/12/04 06:21:17;;;;;;;19.82;11.15;;;;;;;-4.87;100.00;101811.98;1652038;85;21010;-70
2022/12/04 06:23:43;;;;;;;20.55;12.23;;;;;;;-4.92;100.00;101818.12;1641199;87;21946;-70
2022/12/04 10:31:20;;;;;;;40.70;21.12;;;;;;;-6.24;100.00;101797.06;1796576;79;23221;-69
2022/12/04 10:33:53;;;;;;;28.55;15.28;;;;;;;-6.13;100.00;101805.88;1751083;82;21062;-70
2022/12/04 10:36:24;;;;;;;20.85;11.73;;;;;;;-5.87;100.00;101810.56;1751471;81;21521;-69
2022/12/04 10:38:58;;;;;;;21.15;11.22;;;;;;;-5.59;100.00;101812.77;1751430;82;21063;-70
2022/12/04 10:41:48;;;;;;;18.40;10.60;;;;;;;-5.44;100.00;101803.27;1752815;82;20999;-71
2022/12/04 10:44:17;;;;;;;26.00;10.93;;;;;;;-5.38;100.00;101800.98;1722876;82;21027;-71
2022/12/04 10:46:43;;;;;;;17.35;9.63;;;;;;;-5.27;100.00;101797.01;1752840;82;21545;-70
2022/12/04 10:49:21;;;;;;;20.08;9.70;;;;;;;-5.18;100.00;101792.32;1752907;82;20991;-71
2022/12/04 10:51:47;;;;;;;17.25;10.70;;;;;;;-5.07;100.00;101795.45;1752655;82;21039;-70
2022/12/04 10:54:32;;;;;;;20.02;12.35;;;;;;;-5.02;100.00;101785.30;1752873;82;21019;-70
2022/12/04 10:57:05;;;;;;;21.35;12.88;;;;;;;-4.91;100.00;101781.31;1752731;81;21067;-71
2022/12/04 10:59:32;;;;;;;21.25;11.78;;;;;;;-4.77;100.00;101779.72;1739330;82;21042;-71
2022/12/04 11:02:14;;;;;;;16.65;10.28;;;;;;;-4.70;100.00;101775.59;1736507;82;21647;-72
2022/12/04 11:04:40;;;;;;;34.08;15.68;;;;;;;-4.65;100.00;101769.44;1736666;82;21600;-70
2022/12/04 11:07:20;;;;;;;24.27;13.22;;;;;;;-4.63;100.00;101769.29;1735731;82;21018;-70
2022/12/04 11:10:02;;;;;;;22.93;12.28;;;;;;;-4.68;100.00;101765.70;1740712;82;21133;-68
2022/12/04 11:12:28;;;;;;;20.43;11.35;;;;;;;-4.66;100.00;101768.22;1731796;82;21058;-69
2022/12/04 11:14:59;;;;;;;;;;;;;;;-4.66;100.00;101766.41;1724471;83;21639;-70
2022/12/04 11:17:25;;;;;;;20.92;12.10;;;;;;;-4.66;100.00;101762.42;1721920;83;20533;-70
2022/12/04 11:20:04;;;;;;;24.18;14.80;;;;;;;-4.69;100.00;101763.16;1721907;83;21058;-70
2022/12/04 11:22:31;;;;;;;21.33;11.12;;;;;;;-4.68;100.00;101763.05;1741598;82;21055;-75
2022/12/04 11:24:58;;;;;;;21.20;12.75;;;;;;;-4.65;100.00;101756.15;1751471;82;21058;-71
2022/12/04 11:27:31;;;;;;;18.05;11.90;;;;;;;-4.64;100.00;101757.00;1751679;82;21019;-70
2022/12/04 11:30:00;;;;;;;21.48;10.50;;;;;;;-4.71;100.00;101760.61;1751941;81;21117;-72
2022/12/04 11:32:32;;;;;;;17.32;9.73;;;;;;;-4.78;100.00;101755.43;1752457;82;21645;-70
2022/12/04 11:35:06;;;;;;;19.15;10.45;;;;;;;-4.77;100.00;101760.27;1753596;82;21026;-70
2022/12/04 11:37:33;;;;;;;14.13;7.80;;;;;;;-4.71;100.00;101760.61;1753508;82;21090;-69
2022/12/04 11:40:02;;;;;;;17.35;9.23;;;;;;;-4.66;100.00;101758.92;1753841;82;21013;-70
2022/12/04 11:42:30;;;;;;;14.55;8.88;;;;;;;-4.60;100.00;101751.28;1753202;81;21038;-69
2022/12/04 11:45:02;;;;;;;15.63;9.38;;;;;;;-4.60;100.00;101746.45;1730620;81;21059;-70
2022/12/04 11:47:31;;;;;;;14.35;7.30;;;;;;;-4.62;100.00;101738.62;1723323;83;21011;-69
2022/12/04 11:50:15;;;;;;;13.05;7.78;;;;;;;-4.65;100.00;101741.53;1722968;83;21488;-69
2022/12/04 11:53:01;;;;;;;15.50;7.90;;;;;;;-4.62;100.00;101737.77;1735172;82;21058;-69
2022/12/04 11:55:52;;;;;;;14.28;8.38;;;;;;;-4.62;100.00;101738.62;1738283;82;21066;-70
2022/12/04 11:58:30;;;;;;;18.20;8.83;;;;;;;-4.54;100.00;101740.17;1744507;81;21086;-69
2022/12/04 12:01:19;;;;;;;17.70;9.88;;;;;;;-4.48;100.00;101737.48;1745269;82;21783;-68
2022/12/04 12:04:23;;;;;;;18.32;9.30;;;;;;;-4.49;100.00;101739.77;1724961;82;21644;-69
2022/12/04 12:07:09;;;;;;;16.30;8.85;;;;;;;-4.55;100.00;101730.50;1745589;81;21067;-70
2022/12/04 12:10:00;;;;;;;18.45;8.78;;;;;;;-4.60;100.00;101730.50;1726157;82;21015;-68
2022/12/04 12:12:54;;;;;;;17.05;9.50;;;;;;;-4.62;100.00;101729.31;1731100;82;21109;-70
2022/12/04 12:16:06;;;;;;;20.77;10.25;;;;;;;-4.63;100.00;101727.62;1745467;82;21098;-70
2022/12/04 12:18:50;;;;;;;19.00;10.20;;;;;;;-4.76;100.00;101721.63;1733892;82;21551;-70
2022/12/04 12:21:27;;;;;;;18.40;10.23;;;;;;;-4.84;100.00;101724.05;1747030;82;21031;-70
2022/12/04 12:24:25;;;;;;;22.40;10.95;;;;;;;-4.79;100.00;101728.52;1738012;82;21360;-70
2022/12/04 12:27:26;;;;;;;17.32;9.63;;;;;;;-4.77;100.00;101718.60;1743789;82;21018;-71
2022/12/04 12:30:14;;;;;;;25.75;15.83;;;;;;;-4.83;100.00;101727.56;1736949;81;20988;-70
2022/12/04 12:33:10;;;;;;;24.85;12.33;;;;;;;-4.84;100.00;101719.22;1726503;82;21028;-70
2022/12/04 12:36:01;;;;;;;26.23;12.40;;;;;;;-4.80;100.00;101722.84;1711125;82;21615;-71
2022/12/04 12:38:50;;;;;;;32.03;15.65;;;;;;;-4.76;100.00;101715.47;1680510;84;21046;-71
2022/12/04 12:41:22;;;;;;;32.40;15.05;;;;;;;-4.69;100.00;101716.17;1672239;84;21019;-70
2022/12/04 12:43:53;;;;;;;22.87;11.15;;;;;;;-4.67;100.00;101715.55;1672115;84;20995;-70
2022/12/04 12:46:40;;;;;;;21.33;10.20;;;;;;;-4.65;100.00;101718.09;1672211;84;21601;-71
2022/12/04 12:49:14;;;;;;;21.20;9.43;;;;;;;-4.66;100.00;101715.91;1672421;84;21055;-69
2022/12/04 12:51:46;;;;;;;16.52;8.08;;;;;;;-4.67;100.00;101718.20;1677179;84;21067;-70
2022/12/04 12:54:42;;;;;;;19.48;9.08;;;;;;;-4.64;100.00;101712.63;1682700;84;21653;-71
2022/12/04 12:57:19;;;;;;;19.10;7.85;;;;;;;-4.60;100.00;101710.09;1684669;84;21066;-71
2022/12/04 12:59:52;;;;;;;18.32;7.15;;;;;;;-4.58;100.00;101712.16;1685178;84;21494;-71
2022/12/04 13:02:29;;;;;;;15.03;6.78;;;;;;;-4.56;100.00;101714.66;1684331;84;21609;-70
2022/12/04 13:05:02;;;;;;;15.35;6.10;;;;;;;-4.55;100.00;101715.88;1683933;84;21048;-71
2022/12/04 13:07:58;;;;;;;16.73;6.85;;;;;;;-4.50;100.00;101718.17;1684600;84;21127;-70
2022/12/04 13:10:30;;;;;;;26.55;10.78;;;;;;;-4.48;100.00;101715.36;1722769;82;21032;-71
2022/12/04 13:13:20;;;;;;;13.15;5.75;;;;;;;-4.49;100.00;101721.16;1687893;84;21008;-71
2022/12/04 13:16:15;;;;;;;11.38;5.62;;;;;;;-4.50;100.00;101712.00;1684856;84;21078;-71
2022/12/04 13:19:22;;;;;;;18.30;5.45;;;;;;;-4.50;100.00;101710.67;1685325;84;21545;-70
2022/12/04 13:22:09;;;;;;;16.57;7.53;;;;;;;-4.53;100.00;101715.73;1683062;84;21051;-70
2022/12/04 13:25:12;;;;;;;15.45;7.12;;;;;;;-4.57;100.00;101721.79;1683393;84;20995;-69
2022/12/04 13:28:24;;;;;;;11.38;5.30;;;;;;;-4.60;100.00;101720.72;1682961;84;21063;-72
2022/12/04 13:31:27;;;;;;;11.63;5.42;;;;;;;-4.60;100.00;101722.05;1687451;84;21015;-69
2022/12/04 13:34:29;;;;;;;11.45;5.70;;;;;;;-4.63;100.00;101714.33;1670606;85;21119;-70
2022/12/04 13:37:13;;;;;;;10.48;5.42;;;;;;;-4.67;100.00;101711.56;1667525;85;21084;-71
2022/12/04 13:40:10;;;;;;;12.93;5.20;;;;;;;-4.68;100.00;101709.89;1691342;84;21110;-70
2022/12/04 13:42:42;;;;;;;12.33;6.25;;;;;;;-4.66;100.00;101707.09;1657759;85;21153;-71
2022/12/04 13:45:25;;;;;;;12.82;6.00;;;;;;;-4.73;100.00;101708.56;1677048;84;21854;-70
2022/12/04 13:47:59;;;;;;;14.87;6.53;;;;;;;-4.76;100.00;101709.67;1661488;85;21126;-69
2022/12/04 13:50:32;;;;;;;14.45;6.70;;;;;;;-4.80;100.00;101709.55;1678030;85;21364;-69
2022/12/04 13:53:03;;;;;;;20.32;7.90;;;;;;;-4.83;100.00;101708.48;1706985;84;21064;-68
2022/12/04 13:55:35;;;;;;;16.70;7.72;;;;;;;-4.87;100.00;101701.73;1683535;84;21070;-70
2022/12/04 13:58:16;;;;;;;15.72;6.78;;;;;;;-4.89;100.00;101708.14;1672425;85;21162;-69
2022/12/04 14:00:43;;;;;;;17.32;7.75;;;;;;;-4.90;100.00;101701.13;1672053;85;21377;-69
2022/12/04 14:03:29;;;;;;;13.80;7.30;;;;;;;-4.94;100.00;101704.52;1669797;85;21083;-69
2022/12/04 14:05:55;;;;;;;16.42;8.05;;;;;;;-4.99;100.00;101710.67;1673450;85;21069;-69
2022/12/04 14:08:25;;;;;;;15.13;7.45;;;;;;;-5.01;100.00;101713.95;1699543;84;21051;-69
2022/12/04 14:11:14;;;;;;;25.72;10.55;;;;;;;-5.03;100.00;101714.58;1701520;84;21051;-70
2022/12/04 14:13:47;;;;;;;22.52;9.85;;;;;;;-5.03;100.00;101714.06;1656659;86;21094;-71
2022/12/04 14:16:33;;;;;;;18.52;8.40;;;;;;;-5.04;100.00;101715.05;1682780;85;21042;-70
2022/12/04 14:19:00;;;;;;;15.65;6.62;;;;;;;-5.06;100.00;101702.84;1654804;86;21172;-69
2022/12/04 14:21:42;;;;;;;17.27;7.45;;;;;;;-5.09;100.00;101695.13;1687549;84;21003;-71
2022/12/04 14:24:34;;;;;;;18.77;7.83;;;;;;;-5.14;100.00;101692.86;1673617;85;21047;-69
2022/12/04 14:27:46;;;;;;;17.65;7.90;;;;;;;-5.21;100.00;101704.91;1660727;86;21068;-70
2022/12/04 14:30:32;;;;;;;20.17;8.55;;;;;;;-5.26;100.00;101701.80;1639596;87;21045;-70
2022/12/04 14:33:04;;;;;;;24.45;9.48;;;;;;;-5.29;100.00;101707.36;1667376;86;21138;-70
2022/12/04 14:35:31;;;;;;;16.32;6.85;;;;;;;-5.30;100.00;101703.01;1670880;86;21456;-70
2022/12/04 14:38:00;;;;;;;15.58;7.08;;;;;;;-5.28;100.00;101707.70;1646999;84;21067;-69
2022/12/04 14:40:38;;;;;;;15.08;6.85;;;;;;;-5.29;100.00;101709.16;1686075;84;21019;-69
2022/12/04 14:43:04;;;;;;;15.13;6.75;;;;;;;-5.26;100.00;101709.77;1686820;84;21071;-69
2022/12/04 14:45:38;;;;;;;17.82;6.83;;;;;;;-5.23;100.00;101711.32;1686869;84;21015;-70
2022/12/04 14:48:40;;;;;;;17.57;7.70;;;;;;;-5.26;100.00;101719.54;1687360;84;21051;-70
2022/12/04 14:51:34;;;;;;;14.13;6.83;;;;;;;-5.28;100.00;101710.87;1672033;85;21059;-69
2022/12/04 14:54:12;;;;;;;13.70;6.25;;;;;;;-5.29;100.00;101711.82;1671880;86;21055;-70
2022/12/04 14:57:17;;;;;;;12.60;6.28;;;;;;;-5.33;100.00;101716.53;1671969;86;21119;-70
2022/12/04 14:59:48;;;;;;;13.83;6.15;;;;;;;-5.35;100.00;101709.66;1672084;86;21043;-71
2022/12/04 15:02:34;;;;;;;14.87;6.87;;;;;;;-5.38;100.00;101711.20;1671876;86;21055;-70
2022/12/04 15:05:01;;;;;;;14.83;6.95;;;;;;;-5.40;100.00;101706.52;1673672;84;21429;-68
2022/12/04 15:07:29;;;;;;;12.65;6.10;;;;;;;-5.41;100.00;101702.16;1718118;83;21648;-70
2022/12/04 15:12:53;;;;;;;16.32;6.20;;;;;;;-5.40;100.00;101707.84;1718567;83;21585;-70
2022/12/04 15:15:27;;;;;;;12.68;6.22;;;;;;;-5.41;100.00;101711.45;1718860;83;20995;-69
2022/12/04 15:18:13;;;;;;;14.70;5.80;;;;;;;-5.41;100.00;101703.02;1718803;83;21035;-68
2022/12/04 15:20:54;;;;;;;12.05;5.70;;;;;;;-5.41;100.00;101695.53;1718953;83;21030;-69
2022/12/04 15:23:29;;;;;;;13.72;6.70;;;;;;;-5.41;100.00;101706.14;1718473;83;21082;-71
2022/12/04 15:25:57;;;;;;;14.38;6.50;;;;;;;-5.42;100.00;101705.30;1718634;83;20987;-70
2022/12/04 15:28:30;;;;;;;12.68;6.22;;;;;;;-5.44;100.00;101703.73;1718470;83;21074;-70
2022/12/04 15:30:57;;;;;;;13.98;6.62;;;;;;;-5.41;100.00;101703.48;1718495;82;21511;-70
2022/12/04 15:33:28;;;;;;;13.50;6.97;;;;;;;-5.41;100.00;101699.03;1728437;82;21023;-69
2022/12/04 15:35:59;;;;;;;12.88;6.72;;;;;;;-5.38;100.00;101699.26;1722179;82;20972;-69
2022/12/04 15:38:25;;;;;;;12.20;6.28;;;;;;;-5.38;100.00;101705.42;1721868;82;21027;-70
2022/12/04 15:40:55;;;;;;;14.90;5.80;;;;;;;-5.37;100.00;101697.83;1724966;82;20968;-70
2022/12/04 15:43:30;;;;;;;41.18;21.90;;;;;;;-5.36;100.00;101696.02;1723771;82;21028;-70
2022/12/04 15:45:57;;;;;;;106.17;43.17;;;;;;;-5.37;100.00;101698.30;1721447;82;20980;-77
2022/12/04 15:48:29;;;;;;;150.18;53.68;;;;;;;-5.39;100.00;101699.77;1724658;82;21598;-72
2022/12/04 15:51:02;;;;;;;30.08;13.45;;;;;;;-5.38;100.00;101703.24;1702844;82;21007;-75
2022/12/04 15:53:32;;;;;;;48.05;21.33;;;;;;;-5.42;100.00;101701.83;1725220;82;21044;-76
2022/12/04 15:56:03;;;;;;;59.18;27.85;;;;;;;-5.42;100.00;101691.20;1661274;85;21820;-81
2022/12/04 15:58:33;;;;;;;54.90;24.72;;;;;;;-5.40;100.00;101690.59;1685346;84;21530;-70
2022/12/04 16:01:03;;;;;;;78.37;34.38;;;;;;;-5.38;100.00;101685.98;1688788;84;20979;-75
2022/12/04 16:03:44;;;;;;;43.13;18.57;;;;;;;-5.39;100.00;101686.50;1686005;84;21518;-74
2022/12/04 16:06:25;;;;;;;37.13;17.95;;;;;;;-5.38;100.00;101677.55;1683657;84;21043;-77
2022/12/04 16:09:17;;;;;;;21.68;9.35;;;;;;;-5.43;100.00;101674.44;1670625;84;21059;-69
2022/12/04 16:11:44;;;;;;;18.62;10.20;;;;;;;-5.47;100.00;101667.67;1669876;86;21071;-70
2022/12/04 16:14:15;;;;;;;23.00;12.60;;;;;;;-5.48;100.00;101670.44;1708536;84;21071;-68
2022/12/04 16:16:45;;;;;;;15.03;8.00;;;;;;;-5.47;100.00;101670.81;1717400;82;21066;-69
2022/12/04 16:19:33;;;;;;;18.48;9.50;;;;;;;-5.49;100.00;101664.80;1723307;82;21090;-70
2022/12/04 16:22:03;;;;;;;;;;;;;;;-5.47;100.00;101673.46;1725635;82;21071;-70
2022/12/04 16:24:30;;;;;;;13.10;5.83;;;;;;;-5.47;100.00;101674.79;1723325;82;20140;-70
2022/12/04 16:27:04;;;;;;;13.80;6.42;;;;;;;-5.55;100.00;101666.95;1721987;82;21023;-70
2022/12/04 16:29:31;;;;;;;11.75;5.53;;;;;;;-5.55;100.00;101674.06;1720649;82;21082;-71
2022/12/04 16:31:58;;;;;;;13.03;5.42;;;;;;;-5.56;100.00;101671.04;1728290;81;21655;-72
2022/12/04 16:34:26;;;;;;;13.03;7.40;;;;;;;-5.54;100.00;101671.78;1736811;82;21700;-71
2022/12/04 16:36:52;;;;;;;13.28;7.15;;;;;;;-5.56;100.00;101672.37;1734939;82;21023;-70
2022/12/04 16:39:18;;;;;;;17.07;8.35;;;;;;;-5.59;100.00;101673.46;1722490;81;21098;-71
2022/12/04 16:41:46;;;;;;;33.55;20.68;;;;;;;-5.57;100.00;101674.20;1733149;82;21047;-72
2022/12/04 16:44:15;;;;;;;23.80;12.82;;;;;;;-5.56;100.00;101663.92;1734859;82;21536;-74
2022/12/04 16:46:42;;;;;;;17.40;9.80;;;;;;;-5.54;100.00;101667.33;1734838;82;21637;-72
2022/12/04 16:49:11;;;;;;;14.68;8.40;;;;;;;-5.53;100.00;101669.50;1737366;82;21544;-72
2022/12/04 16:51:44;;;;;;;12.95;6.53;;;;;;;-5.55;100.00;101670.94;1737279;82;21063;-72
2022/12/04 16:54:11;;;;;;;19.02;8.20;;;;;;;-5.54;100.00;101669.98;1738455;82;21002;-72
2022/12/04 16:56:37;;;;;;;19.90;8.98;;;;;;;-5.54;100.00;101669.12;1737431;82;21022;-75
2022/12/04 16:59:04;;;;;;;14.28;7.95;;;;;;;-5.56;100.00;101661.27;1735986;82;21003;-75
2022/12/04 17:01:43;;;;;;;13.48;7.03;;;;;;;-5.58;100.00;101661.05;1708942;82;21385;-72
2022/12/04 17:04:09;;;;;;;17.00;7.85;;;;;;;-5.58;100.00;101660.56;1735541;82;21015;-74
2022/12/04 17:06:36;;;;;;;13.78;7.10;;;;;;;-5.57;100.00;101662.74;1737916;81;21106;-73
2022/12/04 17:09:03;;;;;;;13.98;6.10;;;;;;;-5.56;100.00;101665.25;1738424;82;21815;-71
2022/12/04 17:11:30;;;;;;;12.90;6.25;;;;;;;-5.51;100.00;101654.28;1731992;82;21047;-72
2022/12/04 17:13:56;;;;;;;13.78;6.78;;;;;;;-5.49;100.00;101668.77;1737545;82;21070;-73
2022/12/04 17:16:23;;;;;;;12.80;6.30;;;;;;;-5.49;100.00;101666.94;1738315;82;20955;-73
2022/12/04 17:18:50;;;;;;;12.35;6.22;;;;;;;-5.53;100.00;101666.33;1735853;81;21062;-73
2022/12/04 17:21:17;;;;;;;21.95;12.10;;;;;;;-5.55;100.00;101669.61;1737375;81;20955;-72
2022/12/04 17:53:02;;;;;;;14.05;6.47;;;;;;;-5.97;100.00;101669.02;1741803;82;21079;-73
2022/12/04 17:55:28;;;;;;;13.38;5.50;;;;;;;-5.96;100.00;101675.17;1733917;82;21036;-70
2022/12/04 17:57:55;;;;;;;14.80;6.85;;;;;;;-5.99;100.00;101670.96;1730772;83;21004;-71
2022/12/04 18:00:22;;;;;;;14.85;6.33;;;;;;;-5.98;100.00;101673.10;1700299;83;21487;-71
2022/12/04 18:02:49;;;;;;;11.05;6.28;;;;;;;-5.97;100.00;101674.80;1711197;83;21051;-72
2022/12/04 18:05:15;;;;;;;12.37;6.40;;;;;;;-5.96;100.00;101674.70;1712125;83;21052;-71
2022/12/04 18:07:42;;;;;;;17.07;7.60;;;;;;;-6.00;100.00;101677.70;1709849;82;21071;-72
2022/12/04 18:10:08;;;;;;;12.03;6.50;;;;;;;-6.04;100.00;101678.41;1700948;84;21024;-72
2022/12/04 18:12:35;;;;;;;14.98;7.50;;;;;;;-6.07;100.00;101674.20;1711863;83;21532;-72
2022/12/04 18:15:02;;;;;;;12.03;6.28;;;;;;;-6.07;100.00;101675.53;1713929;83;21040;-73
2022/12/04 18:17:29;;;;;;;15.23;7.30;;;;;;;-6.05;100.00;101682.02;1716324;83;21625;-73
2022/12/04 18:19:55;;;;;;;19.65;8.70;;;;;;;-6.03;100.00;101676.61;1716216;83;21063;-72
2022/12/04 18:22:23;;;;;;;18.37;9.38;;;;;;;-6.07;100.00;101668.05;1714175;83;21498;-72
2022/12/04 18:24:50;;;;;;;22.05;8.13;;;;;;;-6.07;100.00;101671.55;1706623;83;21573;-73
2022/12/04 18:29:59;;;;;;;15.50;7.30;;;;;;;-6.06;100.00;101666.59;1798718;79;22697;-71
2022/12/04 18:32:25;;;;;;;15.72;7.75;;;;;;;-6.10;100.00;101663.84;1754313;81;21067;-70
2022/12/04 18:34:52;;;;;;;17.42;8.48;;;;;;;-6.06;100.00;101667.09;1750166;82;21086;-70
2022/12/04 18:37:19;;;;;;;;;;;;;;;-6.06;100.00;101670.56;1752885;82;21090;-69
2022/12/04 18:39:45;;;;;;;19.27;8.18;;;;;;;-6.09;100.00;101668.63;1750239;82;20130;-70
2022/12/04 18:42:12;;;;;;;24.30;10.08;;;;;;;-6.15;100.00;101673.94;1722489;82;21067;-70
2022/12/04 18:44:38;;;;;;;21.62;9.53;;;;;;;-6.12;100.00;101678.15;1751948;82;21031;-70
2022/12/04 18:47:06;;;;;;;19.80;8.20;;;;;;;-6.11;100.00;101690.45;1751602;82;21612;-71
2022/12/04 18:49:33;;;;;;;17.07;7.05;;;;;;;-6.13;100.00;101691.88;1749331;82;20991;-70
2022/12/04 18:52:00;;;;;;;19.30;8.28;;;;;;;-6.16;100.00;101702.72;1722176;83;21046;-71
2022/12/04 18:54:26;;;;;;;;;;;;;;;-6.18;100.00;101701.16;1724710;83;21090;-70
2022/12/04 18:56:53;;;;;;;17.73;8.53;;;;;;;-6.23;100.00;101698.85;1720761;83;20157;-71
2022/12/04 18:59:22;;;;;;;22.22;9.85;;;;;;;-6.25;100.00;101705.23;1720754;83;21070;-70
2022/12/04 19:01:49;;;;;;;20.17;11.43;;;;;;;-6.29;100.00;101706.42;1720926;83;21078;-71
2022/12/04 19:04:17;;;;;;;19.40;9.25;;;;;;;-6.31;100.00;101713.66;1730851;82;21074;-69
2022/12/04 19:06:49;;;;;;;20.90;8.23;;;;;;;-6.31;100.00;101718.48;1734962;82;21059;-71
2022/12/04 19:09:19;;;;;;;22.00;10.18;;;;;;;-6.34;100.00;101711.25;1751600;82;21027;-71
2022/12/04 19:11:45;;;;;;;20.43;10.25;;;;;;;-6.34;100.00;101720.52;1751735;82;21027;-71
2022/12/04 19:14:13;;;;;;;21.65;11.88;;;;;;;-6.33;100.00;101717.73;1750553;82;21719;-71
2022/12/04 19:16:40;;;;;;;18.30;8.80;;;;;;;-6.31;100.00;101714.98;1750329;82;21086;-71
2022/12/04 19:19:10;;;;;;;20.08;10.13;;;;;;;-6.30;100.00;101728.11;1749770;82;21616;-71
2022/12/04 19:21:36;;;;;;;15.63;7.78;;;;;;;-6.30;100.00;101719.30;1744565;81;21047;-71
2022/12/04 19:24:04;;;;;;;27.20;13.75;;;;;;;-6.29;100.00;101721.00;1749356;82;21145;-71
2022/12/04 19:26:32;;;;;;;21.85;10.43;;;;;;;-6.31;100.00;101722.94;1749683;82;22080;-70
2022/12/04 19:29:00;;;;;;;24.18;11.63;;;;;;;-6.33;100.00;101722.19;1742993;82;22231;-70
2022/12/04 19:31:31;;;;;;;78.10;39.08;;;;;;;-6.34;100.00;101720.02;1736266;82;21043;-71
2022/12/04 19:33:58;;;;;;;63.20;31.62;;;;;;;-6.36;100.00;101719.77;1738502;82;21047;-70
2022/12/04 19:36:26;;;;;;;30.52;13.48;;;;;;;-6.37;100.00;101717.59;1738551;82;21040;-71
2022/12/04 19:38:53;;;;;;;23.73;12.13;;;;;;;-6.40;100.00;101715.66;1738143;82;21059;-71
2022/12/04 19:41:21;;;;;;;27.48;13.55;;;;;;;-6.45;100.00;101713.85;1709278;82;21014;-70
2022/12/04 19:43:50;;;;;;;31.68;14.40;;;;;;;-6.47;100.00;101713.10;1708825;84;21039;-70
2022/12/04 19:46:20;;;;;;;31.05;15.70;;;;;;;-6.50;100.00;101715.98;1713010;82;20952;-70
2022/12/04 19:48:49;;;;;;;29.12;13.62;;;;;;;-6.53;100.00;101713.57;1708533;84;21027;-71
2022/12/04 19:51:17;;;;;;;56.05;23.20;;;;;;;-6.53;100.00;101710.45;1709046;82;21035;-71
2022/12/04 19:53:44;;;;;;;32.17;14.50;;;;;;;-6.54;100.00;101707.42;1709083;84;21633;-71
2022/12/04 19:56:15;;;;;;;56.37;22.82;;;;;;;-6.53;100.00;101706.95;1708972;84;20972;-70
2022/12/04 19:58:42;;;;;;;103.12;40.05;;;;;;;-6.55;100.00;101706.57;1708746;84;21023;-71
2022/12/04 20:01:11;;;;;;;134.05;63.70;;;;;;;-6.57;100.00;101705.86;1709148;82;20989;-71
2022/12/04 20:03:37;;;;;;;24.63;11.57;;;;;;;-6.60;100.00;101701.27;1708734;82;21444;-71
2022/12/04 20:06:08;;;;;;;113.05;45.65;;;;;;;-6.60;100.00;101704.77;1708924;82;20960;-71
2022/12/04 20:08:37;;;;;;;45.58;20.97;;;;;;;-6.61;100.00;101700.41;1708677;83;21050;-71
2022/12/04 20:11:04;;;;;;;;;;;;;;;-6.67;100.00;101704.00;1711610;82;21445;-71
2022/12/04 20:13:36;;;;;;;128.75;48.42;;;;;;;-6.72;100.00;101714.08;1724448;81;20116;-71
2022/12/04 20:16:05;;;;;;;118.13;46.88;;;;;;;-6.81;100.00;101704.17;1728503;82;21061;-71